sensor_id;sensor_type;location;lat;lon;timestamp;pressure;altitude;pressure_sealevel;temperature
76476;BMP280;65308;50.078;14.854;2023-03-14T00:01:18;97426.19;;;10.72
76476;BMP280;65308;50.078;14.854;2023-03-14T00:03:46;97423.06;;;10.79
76476;BMP280;65308;50.078;14.854;2023-03-14T00:08:47;97445.50;;;10.93
76476;BMP280;65308;50.078;14.854;2023-03-14T00:11:20;97446.03;;;10.97
76476;BMP280;65308;50.078;14.854;2023-03-14T00:13:47;97489.34;;;11.12
76476;BMP280;65308;50.078;14.854;2023-03-14T00:16:16;97503.25;;;11.11
76476;BMP280;65308;50.078;14.854;2023-03-14T00:18:44;97501.50;;;11.07
76476;BMP280;65308;50.078;14.854;2023-03-14T00:21:12;97500.28;;;11.03
76476;BMP280;65308;50.078;14.854;2023-03-14T00:23:41;97515.34;;;10.89
76476;BMP280;65308;50.078;14.854;2023-03-14T00:28:43;97510.63;;;10.78
76476;BMP280;65308;50.078;14.854;2023-03-14T00:33:44;97493.66;;;10.93
76476;BMP280;65308;50.078;14.854;2023-03-14T00:36:14;97459.34;;;10.80
76476;BMP280;65308;50.078;14.854;2023-03-14T00:38:47;97474.13;;;10.75
76476;BMP280;65308;50.078;14.854;2023-03-14T00:41:16;97467.63;;;10.88
76476;BMP280;65308;50.078;14.854;2023-03-14T00:43:45;97457.69;;;10.94
76476;BMP280;65308;50.078;14.854;2023-03-14T00:46:12;97466.69;;;10.96
76476;BMP280;65308;50.078;14.854;2023-03-14T00:48:39;97454.97;;;10.88
76476;BMP280;65308;50.078;14.854;2023-03-14T00:51:07;97470.81;;;10.92
76476;BMP280;65308;50.078;14.854;2023-03-14T00:53:35;97460.09;;;10.92
76476;BMP280;65308;50.078;14.854;2023-03-14T00:56:03;97463.50;;;10.87
76476;BMP280;65308;50.078;14.854;2023-03-14T00:58:30;97449.34;;;10.80
76476;BMP280;65308;50.078;14.854;2023-03-14T01:00:58;97440.59;;;10.91
76476;BMP280;65308;50.078;14.854;2023-03-14T01:03:25;97427.50;;;10.93
76476;BMP280;65308;50.078;14.854;2023-03-14T01:05:51;97407.03;;;10.90
76476;BMP280;65308;50.078;14.854;2023-03-14T01:08:18;97396.34;;;10.84
76476;BMP280;65308;50.078;14.854;2023-03-14T01:10:45;97386.00;;;10.49
76476;BMP280;65308;50.078;14.854;2023-03-14T01:13:11;97357.09;;;10.59
76476;BMP280;65308;50.078;14.854;2023-03-14T01:15:38;97349.06;;;10.59
76476;BMP280;65308;50.078;14.854;2023-03-14T01:18:06;97321.97;;;10.29
76476;BMP280;65308;50.078;14.854;2023-03-14T01:20:32;97320.31;;;10.37
76476;BMP280;65308;50.078;14.854;2023-03-14T01:22:59;97323.00;;;10.37
76476;BMP280;65308;50.078;14.854;2023-03-14T01:25:26;97311.56;;;10.48
76476;BMP280;65308;50.078;14.854;2023-03-14T01:27:52;97298.38;;;10.27
76476;BMP280;65308;50.078;14.854;2023-03-14T01:30:19;97267.53;;;10.38
76476;BMP280;65308;50.078;14.854;2023-03-14T01:32:46;97274.78;;;10.20
76476;BMP280;65308;50.078;14.854;2023-03-14T01:35:14;97241.38;;;9.99
76476;BMP280;65308;50.078;14.854;2023-03-14T01:37:41;97239.06;;;9.69
76476;BMP280;65308;50.078;14.854;2023-03-14T01:40:10;97228.41;;;9.75
76476;BMP280;65308;50.078;14.854;2023-03-14T01:42:44;97225.72;;;9.69
76476;BMP280;65308;50.078;14.854;2023-03-14T01:48:11;97246.00;;;9.93
76476;BMP280;65308;50.078;14.854;2023-03-14T01:50:42;97244.31;;;10.01
76476;BMP280;65308;50.078;14.854;2023-03-14T01:53:08;97224.91;;;10.06
76476;BMP280;65308;50.078;14.854;2023-03-14T01:55:36;97221.03;;;10.07
76476;BMP280;65308;50.078;14.854;2023-03-14T01:58:03;97226.13;;;10.10
76476;BMP280;65308;50.078;14.854;2023-03-14T02:00:31;97201.09;;;10.08
76476;BMP280;65308;50.078;14.854;2023-03-14T02:03:01;97216.59;;;9.93
76476;BMP280;65308;50.078;14.854;2023-03-14T02:05:30;97240.47;;;10.07
76476;BMP280;65308;50.078;14.854;2023-03-14T02:08:01;97222.53;;;10.19
76476;BMP280;65308;50.078;14.854;2023-03-14T02:10:30;97233.72;;;10.23
76476;BMP280;65308;50.078;14.854;2023-03-14T02:13:00;97224.06;;;10.48
76476;BMP280;65308;50.078;14.854;2023-03-14T02:15:28;97240.81;;;10.43
76476;BMP280;65308;50.078;14.854;2023-03-14T02:17:55;97240.13;;;10.59
76476;BMP280;65308;50.078;14.854;2023-03-14T02:20:28;97230.13;;;10.60
76476;BMP280;65308;50.078;14.854;2023-03-14T02:22:57;97220.19;;;10.60
76476;BMP280;65308;50.078;14.854;2023-03-14T02:25:34;97195.63;;;10.56
76476;BMP280;65308;50.078;14.854;2023-03-14T02:28:06;97206.34;;;10.56
76476;BMP280;65308;50.078;14.854;2023-03-14T02:30:33;97194.63;;;10.48
76476;BMP280;65308;50.078;14.854;2023-03-14T02:33:03;97205.56;;;10.33
76476;BMP280;65308;50.078;14.854;2023-03-14T02:35:33;97218.19;;;10.39
76476;BMP280;65308;50.078;14.854;2023-03-14T02:38:07;97205.84;;;10.52
76476;BMP280;65308;50.078;14.854;2023-03-14T02:40:36;97219.22;;;10.69
76476;BMP280;65308;50.078;14.854;2023-03-14T02:43:03;97227.25;;;10.97
76476;BMP280;65308;50.078;14.854;2023-03-14T02:45:37;97248.91;;;11.27
76476;BMP280;65308;50.078;14.854;2023-03-14T02:48:07;97246.69;;;11.43
76476;BMP280;65308;50.078;14.854;2023-03-14T02:50:35;97250.78;;;11.66
76476;BMP280;65308;50.078;14.854;2023-03-14T02:53:02;97237.25;;;11.25
76476;BMP280;65308;50.078;14.854;2023-03-14T02:55:29;97231.84;;;11.42
76476;BMP280;65308;50.078;14.854;2023-03-14T02:57:56;97236.19;;;11.67
76476;BMP280;65308;50.078;14.854;2023-03-14T03:00:22;97234.41;;;11.81
76476;BMP280;65308;50.078;14.854;2023-03-14T03:02:51;97216.84;;;11.91
76476;BMP280;65308;50.078;14.854;2023-03-14T03:05:17;97223.13;;;11.99
76476;BMP280;65308;50.078;14.854;2023-03-14T03:07:44;97223.53;;;12.09
76476;BMP280;65308;50.078;14.854;2023-03-14T03:10:14;97214.09;;;12.08
76476;BMP280;65308;50.078;14.854;2023-03-14T03:12:41;97208.72;;;12.08
76476;BMP280;65308;50.078;14.854;2023-03-14T03:15:08;97190.28;;;11.93
76476;BMP280;65308;50.078;14.854;2023-03-14T03:17:34;97179.25;;;11.97
76476;BMP280;65308;50.078;14.854;2023-03-14T03:20:03;97180.31;;;11.83
76476;BMP280;65308;50.078;14.854;2023-03-14T03:22:34;97187.19;;;11.72
76476;BMP280;65308;50.078;14.854;2023-03-14T03:25:00;97179.22;;;11.50
76476;BMP280;65308;50.078;14.854;2023-03-14T03:27:29;97172.16;;;11.47
76476;BMP280;65308;50.078;14.854;2023-03-14T03:30:00;97163.72;;;11.31
76476;BMP280;65308;50.078;14.854;2023-03-14T03:32:27;97158.66;;;11.11
76476;BMP280;65308;50.078;14.854;2023-03-14T03:34:54;97163.25;;;11.05
76476;BMP280;65308;50.078;14.854;2023-03-14T03:37:22;97170.06;;;11.06
76476;BMP280;65308;50.078;14.854;2023-03-14T03:39:49;97171.78;;;10.92
76476;BMP280;65308;50.078;14.854;2023-03-14T03:42:16;97164.25;;;10.91
76476;BMP280;65308;50.078;14.854;2023-03-14T03:44:43;97154.75;;;11.06
76476;BMP280;65308;50.078;14.854;2023-03-14T03:47:10;97159.16;;;11.04
76476;BMP280;65308;50.078;14.854;2023-03-14T03:49:37;97154.06;;;10.89
76476;BMP280;65308;50.078;14.854;2023-03-14T03:52:03;97140.66;;;10.83
76476;BMP280;65308;50.078;14.854;2023-03-14T03:54:32;97144.31;;;10.69
76476;BMP280;65308;50.078;14.854;2023-03-14T03:56:58;97149.16;;;10.93
76476;BMP280;65308;50.078;14.854;2023-03-14T03:59:25;97161.78;;;10.98
76476;BMP280;65308;50.078;14.854;2023-03-14T04:01:52;97176.16;;;11.06
76476;BMP280;65308;50.078;14.854;2023-03-14T04:04:18;97184.88;;;11.24
76476;BMP280;65308;50.078;14.854;2023-03-14T04:06:45;97174.91;;;11.30
76476;BMP280;65308;50.078;14.854;2023-03-14T04:09:12;97185.59;;;11.41
76476;BMP280;65308;50.078;14.854;2023-03-14T04:11:44;97196.03;;;11.33
76476;BMP280;65308;50.078;14.854;2023-03-14T04:14:10;97192.91;;;11.35
76476;BMP280;65308;50.078;14.854;2023-03-14T04:16:37;97178.03;;;11.45
76476;BMP280;65308;50.078;14.854;2023-03-14T04:19:07;97178.25;;;11.53
76476;BMP280;65308;50.078;14.854;2023-03-14T04:21:34;97187.97;;;11.56
76476;BMP280;65308;50.078;14.854;2023-03-14T04:24:01;97181.63;;;11.65
76476;BMP280;65308;50.078;14.854;2023-03-14T04:26:27;97176.75;;;11.63
76476;BMP280;65308;50.078;14.854;2023-03-14T04:28:55;97177.97;;;11.56
76476;BMP280;65308;50.078;14.854;2023-03-14T04:31:22;97185.25;;;11.62
76476;BMP280;65308;50.078;14.854;2023-03-14T04:33:48;97181.38;;;11.63
76476;BMP280;65308;50.078;14.854;2023-03-14T04:36:15;97185.97;;;11.62
76476;BMP280;65308;50.078;14.854;2023-03-14T04:38:42;97187.19;;;11.67
76476;BMP280;65308;50.078;14.854;2023-03-14T04:41:09;97178.19;;;11.70
76476;BMP280;65308;50.078;14.854;2023-03-14T04:48:42;97182.31;;;11.76
76476;BMP280;65308;50.078;14.854;2023-03-14T04:51:09;97174.31;;;11.65
76476;BMP280;65308;50.078;14.854;2023-03-14T04:56:11;97180.09;;;11.69
76476;BMP280;65308;50.078;14.854;2023-03-14T04:58:38;97187.44;;;11.74
76476;BMP280;65308;50.078;14.854;2023-03-14T05:01:05;97180.88;;;11.70
76476;BMP280;65308;50.078;14.854;2023-03-14T05:03:32;97188.41;;;11.71
76476;BMP280;65308;50.078;14.854;2023-03-14T05:06:03;97189.16;;;11.66
76476;BMP280;65308;50.078;14.854;2023-03-14T05:08:29;97181.63;;;11.65
76476;BMP280;65308;50.078;14.854;2023-03-14T05:10:57;97181.09;;;11.72
76476;BMP280;65308;50.078;14.854;2023-03-14T05:13:36;97179.38;;;11.69
76476;BMP280;65308;50.078;14.854;2023-03-14T05:16:05;97178.19;;;11.64
76476;BMP280;65308;50.078;14.854;2023-03-14T05:18:33;97166.69;;;11.75
76476;BMP280;65308;50.078;14.854;2023-03-14T05:21:02;97159.38;;;11.81
76476;BMP280;65308;50.078;14.854;2023-03-14T05:23:29;97150.81;;;11.83
76476;BMP280;65308;50.078;14.854;2023-03-14T05:25:56;97156.16;;;11.94
76476;BMP280;65308;50.078;14.854;2023-03-14T05:28:23;97161.72;;;11.96
76476;BMP280;65308;50.078;14.854;2023-03-14T05:30:53;97162.41;;;12.02
76476;BMP280;65308;50.078;14.854;2023-03-14T05:33:24;97149.78;;;11.97
76476;BMP280;65308;50.078;14.854;2023-03-14T05:35:51;97162.66;;;12.04
76476;BMP280;65308;50.078;14.854;2023-03-14T05:38:20;97146.75;;;12.12
76476;BMP280;65308;50.078;14.854;2023-03-14T05:40:51;97136.53;;;12.10
76476;BMP280;65308;50.078;14.854;2023-03-14T05:43:27;97152.88;;;12.12
76476;BMP280;65308;50.078;14.854;2023-03-14T05:46:07;97161.94;;;12.03
76476;BMP280;65308;50.078;14.854;2023-03-14T05:48:34;97167.59;;;11.94
76476;BMP280;65308;50.078;14.854;2023-03-14T05:51:04;97173.13;;;12.02
76476;BMP280;65308;50.078;14.854;2023-03-14T05:53:32;97163.16;;;12.08
76476;BMP280;65308;50.078;14.854;2023-03-14T05:55:58;97166.00;;;12.16
76476;BMP280;65308;50.078;14.854;2023-03-14T05:58:25;97174.34;;;12.07
76476;BMP280;65308;50.078;14.854;2023-03-14T06:00:52;97171.66;;;12.12
76476;BMP280;65308;50.078;14.854;2023-03-14T06:03:19;97168.25;;;12.06
76476;BMP280;65308;50.078;14.854;2023-03-14T06:05:49;97160.63;;;12.16
76476;BMP280;65308;50.078;14.854;2023-03-14T06:08:16;97163.03;;;12.25
76476;BMP280;65308;50.078;14.854;2023-03-14T06:10:44;97172.84;;;12.11
76476;BMP280;65308;50.078;14.854;2023-03-14T06:13:10;97185.78;;;12.07
76476;BMP280;65308;50.078;14.854;2023-03-14T06:15:37;97178.66;;;12.15
76476;BMP280;65308;50.078;14.854;2023-03-14T06:18:04;97179.56;;;12.29
76476;BMP280;65308;50.078;14.854;2023-03-14T06:20:30;97181.13;;;12.49
76476;BMP280;65308;50.078;14.854;2023-03-14T06:23:01;97168.09;;;12.64
76476;BMP280;65308;50.078;14.854;2023-03-14T06:25:28;97174.59;;;12.74
76476;BMP280;65308;50.078;14.854;2023-03-14T06:27:57;97182.88;;;12.76
76476;BMP280;65308;50.078;14.854;2023-03-14T06:30:24;97193.56;;;12.82
76476;BMP280;65308;50.078;14.854;2023-03-14T06:32:51;97189.69;;;12.77
76476;BMP280;65308;50.078;14.854;2023-03-14T06:35:24;97190.47;;;12.72
76476;BMP280;65308;50.078;14.854;2023-03-14T06:38:09;97189.25;;;12.73
76476;BMP280;65308;50.078;14.854;2023-03-14T06:40:35;97189.28;;;12.98
76476;BMP280;65308;50.078;14.854;2023-03-14T06:43:08;97181.22;;;12.98
76476;BMP280;65308;50.078;14.854;2023-03-14T06:45:39;97181.69;;;13.02
76476;BMP280;65308;50.078;14.854;2023-03-14T06:48:13;97187.47;;;13.06
76476;BMP280;65308;50.078;14.854;2023-03-14T06:50:51;97183.94;;;13.17
76476;BMP280;65308;50.078;14.854;2023-03-14T06:53:21;97186.53;;;13.28
76476;BMP280;65308;50.078;14.854;2023-03-14T06:55:48;97182.50;;;13.40
76476;BMP280;65308;50.078;14.854;2023-03-14T06:58:19;97172.59;;;13.48
76476;BMP280;65308;50.078;14.854;2023-03-14T07:00:49;97177.72;;;13.52
76476;BMP280;65308;50.078;14.854;2023-03-14T07:03:15;97177.13;;;13.59
76476;BMP280;65308;50.078;14.854;2023-03-14T07:05:42;97183.63;;;13.69
76476;BMP280;65308;50.078;14.854;2023-03-14T07:08:12;97200.53;;;13.64
76476;BMP280;65308;50.078;14.854;2023-03-14T07:10:38;97211.88;;;13.76
76476;BMP280;65308;50.078;14.854;2023-03-14T07:13:05;97206.06;;;13.91
76476;BMP280;65308;50.078;14.854;2023-03-14T07:15:33;97220.88;;;13.97
76476;BMP280;65308;50.078;14.854;2023-03-14T07:18:02;97215.66;;;14.05
76476;BMP280;65308;50.078;14.854;2023-03-14T07:20:28;97225.31;;;14.14
76476;BMP280;65308;50.078;14.854;2023-03-14T07:22:58;97228.72;;;14.14
76476;BMP280;65308;50.078;14.854;2023-03-14T07:25:26;97227.72;;;14.17
76476;BMP280;65308;50.078;14.854;2023-03-14T07:27:53;97221.66;;;14.30
76476;BMP280;65308;50.078;14.854;2023-03-14T07:30:20;97212.75;;;14.35
76476;BMP280;65308;50.078;14.854;2023-03-14T07:32:55;97209.59;;;14.37
76476;BMP280;65308;50.078;14.854;2023-03-14T07:35:24;97213.13;;;14.45
76476;BMP280;65308;50.078;14.854;2023-03-14T07:37:51;97203.38;;;14.42
76476;BMP280;65308;50.078;14.854;2023-03-14T07:40:19;97204.09;;;14.42
76476;BMP280;65308;50.078;14.854;2023-03-14T07:42:48;97200.31;;;14.51
76476;BMP280;65308;50.078;14.854;2023-03-14T07:45:15;97202.09;;;14.62
76476;BMP280;65308;50.078;14.854;2023-03-14T07:47:44;97202.94;;;14.70
76476;BMP280;65308;50.078;14.854;2023-03-14T07:50:15;97201.81;;;14.79
76476;BMP280;65308;50.078;14.854;2023-03-14T07:52:43;97199.44;;;14.88
76476;BMP280;65308;50.078;14.854;2023-03-14T07:55:12;97205.16;;;15.11
76476;BMP280;65308;50.078;14.854;2023-03-14T07:57:42;97215.81;;;15.17
76476;BMP280;65308;50.078;14.854;2023-03-14T08:00:12;97207.84;;;15.24
76476;BMP280;65308;50.078;14.854;2023-03-14T08:02:43;97214.56;;;15.18
76476;BMP280;65308;50.078;14.854;2023-03-14T08:10:32;97206.19;;;15.48
76476;BMP280;65308;50.078;14.854;2023-03-14T08:13:06;97206.69;;;15.94
76476;BMP280;65308;50.078;14.854;2023-03-14T08:15:48;97203.56;;;16.24
76476;BMP280;65308;50.078;14.854;2023-03-14T08:18:22;97206.16;;;16.58
76476;BMP280;65308;50.078;14.854;2023-03-14T08:20:55;97200.13;;;16.73
76476;BMP280;65308;50.078;14.854;2023-03-14T08:23:26;97201.84;;;16.84
76476;BMP280;65308;50.078;14.854;2023-03-14T08:28:26;97209.81;;;17.25
76476;BMP280;65308;50.078;14.854;2023-03-14T08:30:59;97210.63;;;17.05
76476;BMP280;65308;50.078;14.854;2023-03-14T08:33:29;97218.50;;;16.95
76476;BMP280;65308;50.078;14.854;2023-03-14T08:36:00;97218.56;;;17.11
76476;BMP280;65308;50.078;14.854;2023-03-14T08:38:46;97215.56;;;17.22
76476;BMP280;65308;50.078;14.854;2023-03-14T08:41:16;97211.03;;;17.17
76476;BMP280;65308;50.078;14.854;2023-03-14T08:48:49;97225.03;;;18.18
76476;BMP280;65308;50.078;14.854;2023-03-14T08:51:19;97226.13;;;18.08
76476;BMP280;65308;50.078;14.854;2023-03-14T08:53:46;97214.56;;;17.84
76476;BMP280;65308;50.078;14.854;2023-03-14T08:56:13;97232.22;;;17.93
76476;BMP280;65308;50.078;14.854;2023-03-14T08:58:43;97218.88;;;17.95
76476;BMP280;65308;50.078;14.854;2023-03-14T09:01:30;97221.72;;;17.82
76476;BMP280;65308;50.078;14.854;2023-03-14T09:03:57;97224.06;;;17.77
76476;BMP280;65308;50.078;14.854;2023-03-14T09:06:27;97223.06;;;17.44
76476;BMP280;65308;50.078;14.854;2023-03-14T09:08:53;97226.03;;;17.25
76476;BMP280;65308;50.078;14.854;2023-03-14T09:11:23;97230.41;;;17.00
76476;BMP280;65308;50.078;14.854;2023-03-14T09:13:50;97228.91;;;16.91
76476;BMP280;65308;50.078;14.854;2023-03-14T09:16:20;97222.13;;;16.77
76476;BMP280;65308;50.078;14.854;2023-03-14T09:18:51;97244.16;;;16.18
76476;BMP280;65308;50.078;14.854;2023-03-14T09:21:19;97247.47;;;16.11
76476;BMP280;65308;50.078;14.854;2023-03-14T09:23:46;97250.34;;;15.92
76476;BMP280;65308;50.078;14.854;2023-03-14T09:26:15;97253.81;;;15.80
76476;BMP280;65308;50.078;14.854;2023-03-14T09:28:42;97258.84;;;15.62
76476;BMP280;65308;50.078;14.854;2023-03-14T09:31:10;97252.09;;;15.42
76476;BMP280;65308;50.078;14.854;2023-03-14T09:33:37;97262.66;;;15.40
76476;BMP280;65308;50.078;14.854;2023-03-14T09:43:45;97270.47;;;15.57
76476;BMP280;65308;50.078;14.854;2023-03-14T09:46:15;97261.41;;;15.68
76476;BMP280;65308;50.078;14.854;2023-03-14T09:48:43;97256.69;;;15.95
76476;BMP280;65308;50.078;14.854;2023-03-14T09:51:16;97252.88;;;16.45
76476;BMP280;65308;50.078;14.854;2023-03-14T09:53:48;97236.25;;;16.83
76476;BMP280;65308;50.078;14.854;2023-03-14T09:56:18;97237.69;;;17.13
76476;BMP280;65308;50.078;14.854;2023-03-14T10:01:20;97238.44;;;17.13
76476;BMP280;65308;50.078;14.854;2023-03-14T10:03:49;97237.59;;;16.97
76476;BMP280;65308;50.078;14.854;2023-03-14T10:06:23;97236.34;;;16.98
76476;BMP280;65308;50.078;14.854;2023-03-14T10:08:54;97235.00;;;16.84
76476;BMP280;65308;50.078;14.854;2023-03-14T10:11:23;97229.44;;;16.61
76476;BMP280;65308;50.078;14.854;2023-03-14T10:14:04;97237.06;;;16.70
76476;BMP280;65308;50.078;14.854;2023-03-14T10:16:36;97244.88;;;16.82
76476;BMP280;65308;50.078;14.854;2023-03-14T10:19:10;97241.03;;;16.77
76476;BMP280;65308;50.078;14.854;2023-03-14T10:21:40;97244.94;;;16.89
76476;BMP280;65308;50.078;14.854;2023-03-14T10:24:10;97223.47;;;16.84
76476;BMP280;65308;50.078;14.854;2023-03-14T10:26:47;97226.44;;;17.01
76476;BMP280;65308;50.078;14.854;2023-03-14T10:29:16;97223.97;;;16.82
76476;BMP280;65308;50.078;14.854;2023-03-14T10:34:24;97223.38;;;16.68
76476;BMP280;65308;50.078;14.854;2023-03-14T10:36:55;97212.88;;;16.65
76476;BMP280;65308;50.078;14.854;2023-03-14T10:39:35;97223.69;;;16.65
76476;BMP280;65308;50.078;14.854;2023-03-14T10:42:16;97215.25;;;16.68
76476;BMP280;65308;50.078;14.854;2023-03-14T10:44:53;97226.78;;;16.69
76476;BMP280;65308;50.078;14.854;2023-03-14T10:47:26;97225.88;;;16.66
76476;BMP280;65308;50.078;14.854;2023-03-14T10:49:55;97228.69;;;16.61
76476;BMP280;65308;50.078;14.854;2023-03-14T10:52:23;97230.00;;;16.46
76476;BMP280;65308;50.078;14.854;2023-03-14T10:54:54;97230.16;;;16.41
76476;BMP280;65308;50.078;14.854;2023-03-14T10:57:24;97222.66;;;16.26
76476;BMP280;65308;50.078;14.854;2023-03-14T10:59:55;97230.16;;;16.20
76476;BMP280;65308;50.078;14.854;2023-03-14T11:02:37;97232.38;;;16.29
76476;BMP280;65308;50.078;14.854;2023-03-14T11:05:18;97234.09;;;16.19
76476;BMP280;65308;50.078;14.854;2023-03-14T11:07:48;97236.13;;;16.05
76476;BMP280;65308;50.078;14.854;2023-03-14T11:10:20;97227.31;;;15.91
76476;BMP280;65308;50.078;14.854;2023-03-14T11:12:58;97233.34;;;16.18
76476;BMP280;65308;50.078;14.854;2023-03-14T11:15:30;97227.22;;;16.18
76476;BMP280;65308;50.078;14.854;2023-03-14T11:18:17;97233.63;;;16.07
76476;BMP280;65308;50.078;14.854;2023-03-14T11:23:23;97225.19;;;16.32
76476;BMP280;65308;50.078;14.854;2023-03-14T11:25:57;97230.94;;;16.28
76476;BMP280;65308;50.078;14.854;2023-03-14T11:28:36;97230.00;;;16.25
76476;BMP280;65308;50.078;14.854;2023-03-14T11:31:27;97229.44;;;16.19
76476;BMP280;65308;50.078;14.854;2023-03-14T11:33:57;97230.66;;;16.18
76476;BMP280;65308;50.078;14.854;2023-03-14T11:36:36;97228.78;;;16.27
76476;BMP280;65308;50.078;14.854;2023-03-14T11:41:42;97216.56;;;16.12
76476;BMP280;65308;50.078;14.854;2023-03-14T11:44:16;97211.88;;;16.26
76476;BMP280;65308;50.078;14.854;2023-03-14T11:46:48;97217.97;;;16.47
76476;BMP280;65308;50.078;14.854;2023-03-14T11:49:30;97208.03;;;16.42
76476;BMP280;65308;50.078;14.854;2023-03-14T11:52:02;97203.69;;;16.39
76476;BMP280;65308;50.078;14.854;2023-03-14T11:54:35;97206.72;;;16.36
76476;BMP280;65308;50.078;14.854;2023-03-14T11:59:50;97206.00;;;16.35
76476;BMP280;65308;50.078;14.854;2023-03-14T12:02:25;97203.81;;;16.13
76476;BMP280;65308;50.078;14.854;2023-03-14T12:08:32;97200.66;;;15.88
76476;BMP280;65308;50.078;14.854;2023-03-14T12:11:04;97203.22;;;15.72
76476;BMP280;65308;50.078;14.854;2023-03-14T12:13:38;97192.22;;;15.70
76476;BMP280;65308;50.078;14.854;2023-03-14T12:16:18;97195.91;;;15.46
76476;BMP280;65308;50.078;14.854;2023-03-14T12:18:56;97194.16;;;15.49
76476;BMP280;65308;50.078;14.854;2023-03-14T12:21:44;97200.38;;;15.57
76476;BMP280;65308;50.078;14.854;2023-03-14T12:24:18;97189.09;;;15.80
76476;BMP280;65308;50.078;14.854;2023-03-14T12:26:53;97185.13;;;15.81
76476;BMP280;65308;50.078;14.854;2023-03-14T12:29:20;97193.25;;;16.01
76476;BMP280;65308;50.078;14.854;2023-03-14T12:34:30;97186.53;;;15.74
76476;BMP280;65308;50.078;14.854;2023-03-14T12:37:16;97189.97;;;15.61
76476;BMP280;65308;50.078;14.854;2023-03-14T12:39:49;97187.25;;;15.61
76476;BMP280;65308;50.078;14.854;2023-03-14T12:42:37;97189.34;;;15.55
76476;BMP280;65308;50.078;14.854;2023-03-14T12:45:21;97189.06;;;15.45
76476;BMP280;65308;50.078;14.854;2023-03-14T12:47:56;97180.66;;;15.62
76476;BMP280;65308;50.078;14.854;2023-03-14T12:53:39;97180.88;;;15.38
76476;BMP280;65308;50.078;14.854;2023-03-14T12:56:24;97172.53;;;15.15
76476;BMP280;65308;50.078;14.854;2023-03-14T12:59:02;97177.88;;;15.28
76476;BMP280;65308;50.078;14.854;2023-03-14T13:01:36;97176.75;;;15.37
76476;BMP280;65308;50.078;14.854;2023-03-14T13:04:07;97175.41;;;15.43
76476;BMP280;65308;50.078;14.854;2023-03-14T13:06:49;97172.47;;;15.28
76476;BMP280;65308;50.078;14.854;2023-03-14T13:09:53;97177.34;;;15.43
76476;BMP280;65308;50.078;14.854;2023-03-14T13:12:34;97167.75;;;15.68
76476;BMP280;65308;50.078;14.854;2023-03-14T13:15:17;97173.44;;;15.78
76476;BMP280;65308;50.078;14.854;2023-03-14T13:17:47;97171.63;;;15.81
76476;BMP280;65308;50.078;14.854;2023-03-14T13:20:20;97174.72;;;15.64
76476;BMP280;65308;50.078;14.854;2023-03-14T13:22:50;97174.72;;;15.64
76476;BMP280;65308;50.078;14.854;2023-03-14T13:25:18;97164.34;;;15.55
76476;BMP280;65308;50.078;14.854;2023-03-14T13:27:47;97156.72;;;15.45
76476;BMP280;65308;50.078;14.854;2023-03-14T13:30:17;97164.00;;;15.24
76476;BMP280;65308;50.078;14.854;2023-03-14T13:32:47;97161.94;;;15.17
76476;BMP280;65308;50.078;14.854;2023-03-14T13:35:16;97161.69;;;15.28
76476;BMP280;65308;50.078;14.854;2023-03-14T13:37:44;97161.94;;;15.30
76476;BMP280;65308;50.078;14.854;2023-03-14T13:40:24;97161.19;;;15.43
76476;BMP280;65308;50.078;14.854;2023-03-14T13:43:01;97146.16;;;15.34
76476;BMP280;65308;50.078;14.854;2023-03-14T13:48:12;97164.00;;;15.37
76476;BMP280;65308;50.078;14.854;2023-03-14T13:50:46;97169.69;;;15.34
76476;BMP280;65308;50.078;14.854;2023-03-14T13:53:13;97153.84;;;15.17
76476;BMP280;65308;50.078;14.854;2023-03-14T13:55:41;97164.81;;;15.19
76476;BMP280;65308;50.078;14.854;2023-03-14T13:58:18;97156.03;;;15.32
76476;BMP280;65308;50.078;14.854;2023-03-14T14:00:54;97152.94;;;15.28
76476;BMP280;65308;50.078;14.854;2023-03-14T14:03:24;97157.94;;;15.44
76476;BMP280;65308;50.078;14.854;2023-03-14T14:05:51;97155.34;;;15.52
76476;BMP280;65308;50.078;14.854;2023-03-14T14:08:18;97146.69;;;15.33
76476;BMP280;65308;50.078;14.854;2023-03-14T14:10:55;97145.75;;;15.30
76476;BMP280;65308;50.078;14.854;2023-03-14T14:13:40;97150.13;;;15.07
76476;BMP280;65308;50.078;14.854;2023-03-14T14:16:23;97136.34;;;14.97
76476;BMP280;65308;50.078;14.854;2023-03-14T14:18:52;97135.94;;;14.93
76476;BMP280;65308;50.078;14.854;2023-03-14T14:21:24;97127.88;;;14.80
76476;BMP280;65308;50.078;14.854;2023-03-14T14:24:05;97126.31;;;14.71
76476;BMP280;65308;50.078;14.854;2023-03-14T14:26:34;97123.31;;;14.88
76476;BMP280;65308;50.078;14.854;2023-03-14T14:29:02;97120.41;;;14.86
76476;BMP280;65308;50.078;14.854;2023-03-14T14:31:29;97124.78;;;14.89
76476;BMP280;65308;50.078;14.854;2023-03-14T14:33:57;97118.94;;;14.85
76476;BMP280;65308;50.078;14.854;2023-03-14T14:36:31;97127.66;;;14.78
76476;BMP280;65308;50.078;14.854;2023-03-14T14:38:59;97122.97;;;14.65
76476;BMP280;65308;50.078;14.854;2023-03-14T14:41:31;97114.09;;;14.57
76476;BMP280;65308;50.078;14.854;2023-03-14T14:54:12;97115.94;;;14.48
76476;BMP280;65308;50.078;14.854;2023-03-14T14:56:40;97128.88;;;14.50
76476;BMP280;65308;50.078;14.854;2023-03-14T14:59:20;97120.41;;;14.59
76476;BMP280;65308;50.078;14.854;2023-03-14T15:01:47;97121.94;;;14.41
76476;BMP280;65308;50.078;14.854;2023-03-14T15:04:16;97124.88;;;14.24
76476;BMP280;65308;50.078;14.854;2023-03-14T15:06:44;97116.44;;;14.34
76476;BMP280;65308;50.078;14.854;2023-03-14T15:09:15;97128.00;;;14.29
76476;BMP280;65308;50.078;14.854;2023-03-14T15:11:43;97122.50;;;14.21
76476;BMP280;65308;50.078;14.854;2023-03-14T15:14:10;97118.75;;;14.24
76476;BMP280;65308;50.078;14.854;2023-03-14T15:16:37;97113.50;;;14.32
76476;BMP280;65308;50.078;14.854;2023-03-14T15:19:11;97118.41;;;14.33
76476;BMP280;65308;50.078;14.854;2023-03-14T15:24:45;97113.16;;;14.54
76476;BMP280;65308;50.078;14.854;2023-03-14T15:27:13;97117.09;;;14.66
76476;BMP280;65308;50.078;14.854;2023-03-14T15:29:41;97111.41;;;14.83
76476;BMP280;65308;50.078;14.854;2023-03-14T15:32:11;97110.75;;;14.90